createdAt,value
2023-10-06T00:09:29.941Z,95019.13
2023-10-06T00:24:32.744Z,95007.47
2023-10-06T00:39:34.441Z,95003.00
2023-10-06T00:54:36.220Z,95017.72
2023-10-06T01:09:37.883Z,95012.88
2023-10-06T01:24:39.608Z,95002.81
2023-10-06T01:39:41.694Z,95018.38
2023-10-06T01:54:46.452Z,95030.13
2023-10-06T02:09:49.666Z,95036.38
2023-10-06T02:24:51.338Z,95051.94
2023-10-06T02:39:54.473Z,95053.03
2023-10-06T02:55:05.436Z,95056.81
2023-10-06T03:10:11.376Z,95048.84
2023-10-06T03:25:18.263Z,95052.25
2023-10-06T03:40:47.549Z,95056.69
2023-10-06T03:55:49.251Z,95054.72
2023-10-06T04:11:01.401Z,95058.03
2023-10-06T04:26:03.158Z,95078.94
2023-10-06T04:41:08.500Z,95078.84
2023-10-06T04:56:10.353Z,95083.56
2023-10-06T05:11:12.748Z,95110.19
2023-10-06T05:26:16.480Z,95121.56
2023-10-06T05:41:18.905Z,95134.81
2023-10-06T05:56:21.429Z,95148.03
2023-10-06T06:11:23.211Z,95159.72
2023-10-06T06:26:26.027Z,95169.84
2023-10-06T06:41:28.708Z,95182.75
2023-10-06T06:56:31.409Z,95195.16
2023-10-06T07:11:35.549Z,95200.00
2023-10-06T07:26:38.211Z,95201.81
2023-10-06T07:41:39.941Z,95191.19
2023-10-06T07:56:43.537Z,95183.69
2023-10-06T08:11:46.568Z,95183.03
2023-10-06T08:26:50.115Z,95192.28
2023-10-06T08:41:55.884Z,95191.22
2023-10-06T08:56:57.605Z,95180.00
2023-10-06T09:11:59.905Z,95180.59
2023-10-06T09:27:19.223Z,95172.84
2023-10-06T09:42:21.354Z,95173.38
2023-10-06T09:57:23.419Z,95163.91
2023-10-06T10:12:49.391Z,95167.03
2023-10-06T10:28:18.433Z,95151.75
2023-10-06T10:43:22.103Z,95127.16
2023-10-06T10:58:45.482Z,95110.94
2023-10-06T11:14:06.759Z,95093.75
2023-10-06T11:29:08.724Z,95074.69
2023-10-06T11:44:10.596Z,95075.78
2023-10-06T11:59:20.582Z,95081.78
2023-10-06T12:14:22.398Z,95096.13
2023-10-06T12:29:24.174Z,95089.09
2023-10-06T12:44:28.498Z,95095.56
2023-10-06T12:59:33.847Z,95076.06
2023-10-06T13:14:36.270Z,95057.34
2023-10-06T13:29:41.835Z,95044.00
2023-10-06T13:44:44.506Z,95040.59
2023-10-06T13:59:47.942Z,95035.66
2023-10-06T14:14:49.604Z,95027.63
2023-10-06T14:29:52.429Z,95029.75
2023-10-06T14:45:12.867Z,95024.75
2023-10-06T15:00:15.471Z,95041.06
2023-10-06T15:15:17.301Z,95067.69
2023-10-06T15:30:19.044Z,95072.16
2023-10-06T15:45:20.685Z,95101.03
2023-10-06T16:00:24.184Z,95107.72
2023-10-06T16:15:29.470Z,95120.09
2023-10-06T16:30:31.219Z,95133.16
2023-10-06T16:45:36.186Z,95155.75
2023-10-06T17:00:39.105Z,95168.66
2023-10-06T17:15:41.550Z,95199.88
2023-10-06T17:30:43.212Z,95207.25
2023-10-06T17:45:46.009Z,95216.75
2023-10-06T18:00:48.808Z,95228.09
2023-10-06T18:15:53.818Z,95251.09
2023-10-06T18:30:56.791Z,95241.16
2023-10-06T18:46:00.671Z,95244.97
2023-10-06T19:01:05.155Z,95255.47
2023-10-06T19:16:15.418Z,95265.63
2023-10-06T19:31:18.001Z,95263.13
2023-10-06T19:46:20.214Z,95266.41
2023-10-06T20:01:25.312Z,95273.59
2023-10-06T20:16:27.659Z,95277.63
2023-10-06T20:31:30.519Z,95280.53
2023-10-06T20:46:32.504Z,95284.88
2023-10-06T21:01:34.405Z,95297.00
2023-10-06T21:16:37.597Z,95291.06
2023-10-06T21:31:40.158Z,95295.31
2023-10-06T21:46:42.229Z,95290.22
2023-10-06T22:01:44.216Z,95281.34
2023-10-06T22:16:49.623Z,95282.69
2023-10-06T22:31:51.718Z,95278.25
2023-10-06T22:46:53.770Z,95280.28
2023-10-06T23:01:55.652Z,95284.91
2023-10-06T23:17:02.249Z,95286.81
2023-10-06T23:32:04.934Z,95283.81
2023-10-06T23:47:13.524Z,95283.06
